createdAt,value
2022-11-27T00:00:42.126Z,6.46
2022-11-27T00:06:16.372Z,6.41
2022-11-27T00:11:22.376Z,6.39
2022-11-27T00:16:28.078Z,6.39
2022-11-27T00:21:32.803Z,6.37
2022-11-27T00:26:38.164Z,6.36
2022-11-27T00:31:42.085Z,6.34
2022-11-27T00:36:48.231Z,6.32
2022-11-27T00:41:52.476Z,6.32
2022-11-27T00:46:56.548Z,6.30
2022-11-27T00:52:00.459Z,6.27
2022-11-27T00:57:05.444Z,6.25
2022-11-27T01:02:09.741Z,6.26
2022-11-27T01:07:13.680Z,6.23
2022-11-27T01:12:17.037Z,6.22
2022-11-27T01:17:20.552Z,6.20
2022-11-27T01:22:24.044Z,6.18
2022-11-27T01:27:27.522Z,6.19
2022-11-27T01:32:31.177Z,6.19
2022-11-27T01:37:37.254Z,6.17
2022-11-27T01:42:41.136Z,6.14
2022-11-27T01:48:02.938Z,6.13
2022-11-27T01:53:32.363Z,6.09
2022-11-27T01:58:36.700Z,6.15
2022-11-27T02:03:40.223Z,6.25
2022-11-27T02:08:43.909Z,6.33
2022-11-27T02:14:27.027Z,6.35
2022-11-27T02:19:33.292Z,6.33
2022-11-27T02:25:01.909Z,6.32
2022-11-27T02:30:07.980Z,6.30
2022-11-27T02:35:20.205Z,6.26
2022-11-27T02:40:43.075Z,6.23
2022-11-27T02:45:51.977Z,6.19
2022-11-27T02:50:56.626Z,6.17
2022-11-27T02:56:04.151Z,6.15
2022-11-27T03:01:09.666Z,6.14
2022-11-27T03:06:19.914Z,6.11
2022-11-27T03:11:23.610Z,6.09
2022-11-27T03:16:48.957Z,6.07
2022-11-27T03:22:02.386Z,5.98
2022-11-27T03:27:06.436Z,6.00
2022-11-27T03:32:10.411Z,6.03
2022-11-27T03:37:14.585Z,5.99
2022-11-27T03:42:43.006Z,5.96
2022-11-27T03:47:52.630Z,5.95
2022-11-27T03:53:55.889Z,5.94
2022-11-27T03:59:04.877Z,5.99
2022-11-27T04:04:08.400Z,5.99
2022-11-27T04:09:11.833Z,6.00
2022-11-27T04:14:15.529Z,6.01
2022-11-27T04:19:22.261Z,6.03
2022-11-27T04:24:25.699Z,6.01
2022-11-27T04:29:29.387Z,5.97
2022-11-27T04:34:35.756Z,5.96
2022-11-27T04:39:40.076Z,5.96
2022-11-27T04:44:43.758Z,6.02
2022-11-27T04:49:47.279Z,6.10
2022-11-27T04:54:55.388Z,6.16
2022-11-27T05:00:03.238Z,6.20
2022-11-27T05:05:07.168Z,6.21
2022-11-27T05:10:10.793Z,6.24
2022-11-27T05:15:14.598Z,6.17
2022-11-27T05:20:18.423Z,6.11
2022-11-27T05:25:21.946Z,6.06
2022-11-27T05:30:26.746Z,6.02
2022-11-27T05:35:30.359Z,6.00
2022-11-27T05:40:33.924Z,5.99
2022-11-27T05:45:38.256Z,5.97
2022-11-27T05:50:45.169Z,5.95
2022-11-27T05:55:49.196Z,5.98
2022-11-27T06:00:53.115Z,5.98
2022-11-27T06:05:57.366Z,5.93
2022-11-27T06:11:11.575Z,5.92
2022-11-27T06:16:19.390Z,5.87
2022-11-27T06:21:24.434Z,5.85
2022-11-27T06:26:30.931Z,5.90
2022-11-27T06:31:34.732Z,5.97
2022-11-27T06:36:47.633Z,6.06
2022-11-27T06:41:51.091Z,6.07
2022-11-27T06:46:58.376Z,6.14
2022-11-27T06:52:02.800Z,6.21
2022-11-27T06:57:06.393Z,6.24
2022-11-27T07:02:15.106Z,6.20
2022-11-27T07:07:19.130Z,6.21
2022-11-27T07:12:26.598Z,6.17
2022-11-27T07:17:30.362Z,6.16
2022-11-27T07:22:34.256Z,6.14
2022-11-27T07:27:38.031Z,6.06
2022-11-27T07:32:42.146Z,6.02
2022-11-27T07:37:49.521Z,6.05
2022-11-27T07:42:53.720Z,6.06
2022-11-27T07:47:59.794Z,6.08
2022-11-27T07:53:07.105Z,6.09
2022-11-27T07:58:11.067Z,6.19
2022-11-27T08:03:28.438Z,6.29
2022-11-27T08:08:32.809Z,6.43
2022-11-27T08:13:36.682Z,6.46
2022-11-27T08:18:43.638Z,6.44
2022-11-27T08:23:54.054Z,6.46
2022-11-27T08:28:58.206Z,6.45
2022-11-27T08:34:01.279Z,6.46
2022-11-27T08:39:04.381Z,6.44
2022-11-27T08:44:09.461Z,6.46
2022-11-27T08:49:12.666Z,6.48
2022-11-27T08:54:15.837Z,6.50
2022-11-27T08:59:19.175Z,6.49
2022-11-27T09:04:22.309Z,6.50
2022-11-27T09:09:25.335Z,6.52
2022-11-27T09:14:28.830Z,6.55
2022-11-27T09:19:32.319Z,6.57
2022-11-27T09:24:40.908Z,6.61
2022-11-27T09:29:44.835Z,6.60
2022-11-27T09:34:49.088Z,6.63
2022-11-27T09:39:59.408Z,6.66
2022-11-27T09:45:05.841Z,6.70
2022-11-27T09:50:16.171Z,6.74
2022-11-27T09:55:38.182Z,6.84
2022-11-27T10:00:43.449Z,6.92
2022-11-27T10:06:26.798Z,6.93
2022-11-27T10:11:55.022Z,6.96
2022-11-27T10:17:03.645Z,7.01
2022-11-27T10:22:21.286Z,7.02
2022-11-27T10:27:36.284Z,7.01
2022-11-27T10:32:55.136Z,7.00
2022-11-27T10:38:07.105Z,7.01
2022-11-27T10:43:19.210Z,7.02
2022-11-27T10:48:23.775Z,7.01
2022-11-27T10:53:36.690Z,7.01
2022-11-27T10:58:44.666Z,7.02
2022-11-27T11:04:31.149Z,7.01
2022-11-27T11:09:34.720Z,7.02
2022-11-27T11:14:37.769Z,7.03
2022-11-27T11:19:40.805Z,7.05
2022-11-27T11:24:49.146Z,7.06
2022-11-27T11:29:57.028Z,7.07
2022-11-27T11:35:05.011Z,7.09
2022-11-27T11:40:22.224Z,7.08
2022-11-27T11:45:31.250Z,7.07
2022-11-27T11:50:53.559Z,7.10
2022-11-27T12:03:04.775Z,7.14
2022-11-27T12:09:51.364Z,7.18
2022-11-27T12:20:07.946Z,7.41
2022-11-27T12:25:36.317Z,7.44
2022-11-27T12:31:05.857Z,7.50
2022-11-27T12:36:34.683Z,7.55
2022-11-27T12:42:02.086Z,7.49
2022-11-27T12:47:23.392Z,7.45
2022-11-27T12:52:41.214Z,7.44
2022-11-27T12:57:50.048Z,7.42
2022-11-27T13:03:11.416Z,7.47
2022-11-27T13:08:20.946Z,7.48
2022-11-27T13:13:24.587Z,7.46
2022-11-27T13:19:02.432Z,7.44
2022-11-27T13:24:13.267Z,7.46
2022-11-27T13:29:55.432Z,7.78
2022-11-27T13:35:03.116Z,7.78
2022-11-27T13:40:18.849Z,7.58
2022-11-27T13:45:29.973Z,7.47
2022-11-27T13:50:43.654Z,7.36
2022-11-27T13:55:55.090Z,7.26
2022-11-27T14:00:59.054Z,7.17
2022-11-27T14:06:02.244Z,7.13
2022-11-27T14:11:13.003Z,7.09
2022-11-27T14:16:26.933Z,7.07
2022-11-27T14:21:35.881Z,7.00
2022-11-27T14:26:41.360Z,6.97
2022-11-27T14:31:44.474Z,6.96
2022-11-27T14:36:54.754Z,6.93
2022-11-27T14:42:00.442Z,6.90
2022-11-27T14:47:08.416Z,6.89
2022-11-27T14:52:16.735Z,6.85
2022-11-27T14:57:26.741Z,6.81
2022-11-27T15:02:31.930Z,6.81
2022-11-27T15:07:45.439Z,6.78
2022-11-27T15:12:50.404Z,6.78
2022-11-27T15:17:59.196Z,6.81
2022-11-27T15:23:02.942Z,6.84
2022-11-27T15:28:29.574Z,6.87
2022-11-27T15:33:34.127Z,6.87
2022-11-27T15:38:37.262Z,6.83
2022-11-27T15:43:40.244Z,6.84
2022-11-27T15:48:43.234Z,6.77
2022-11-27T15:53:47.524Z,6.72
2022-11-27T15:58:50.874Z,6.68
2022-11-27T16:03:54.259Z,6.65
2022-11-27T16:08:59.068Z,6.70
2022-11-27T16:14:02.342Z,6.67
2022-11-27T16:19:06.608Z,6.60
2022-11-27T16:24:13.410Z,6.52
2022-11-27T16:29:16.419Z,6.47
2022-11-27T16:34:19.546Z,6.45
2022-11-27T16:39:24.455Z,6.46
2022-11-27T16:44:27.790Z,6.52
2022-11-27T16:49:31.118Z,6.58
2022-11-27T16:54:34.300Z,6.57
2022-11-27T16:59:38.505Z,6.54
2022-11-27T17:04:42.981Z,6.49
2022-11-27T17:09:46.737Z,6.46
2022-11-27T17:14:50.461Z,6.45
2022-11-27T17:20:00.369Z,6.50
2022-11-27T17:25:05.421Z,6.49
2022-11-27T17:30:09.447Z,6.42
2022-11-27T17:35:13.332Z,6.35
2022-11-27T17:40:18.558Z,6.32
2022-11-27T17:45:22.539Z,6.29
2022-11-27T17:50:26.565Z,6.25
2022-11-27T17:55:34.257Z,6.23
2022-11-27T18:00:39.035Z,6.29
2022-11-27T18:05:42.480Z,6.31
2022-11-27T18:10:46.871Z,6.27
2022-11-27T18:15:50.695Z,6.33
2022-11-27T18:20:54.628Z,6.38
2022-11-27T18:25:58.045Z,6.42
2022-11-27T18:31:08.980Z,6.39
2022-11-27T18:36:14.058Z,6.36
2022-11-27T18:41:21.187Z,6.31
2022-11-27T18:46:25.029Z,6.27
2022-11-27T18:51:29.336Z,6.26
2022-11-27T18:56:34.318Z,6.20
2022-11-27T19:01:42.322Z,6.19
2022-11-27T19:06:46.709Z,6.24
2022-11-27T19:11:50.144Z,6.23
2022-11-27T19:16:54.411Z,6.16
2022-11-27T19:22:02.317Z,6.17
2022-11-27T19:27:06.910Z,6.27
2022-11-27T19:32:15.126Z,6.27
2022-11-27T19:37:28.860Z,6.28
2022-11-27T19:42:42.228Z,6.30
2022-11-27T19:47:47.046Z,6.28
2022-11-27T19:53:02.758Z,6.23
2022-11-27T19:58:08.270Z,6.18
2022-11-27T20:03:13.513Z,6.14
2022-11-27T20:08:18.479Z,6.09
2022-11-27T20:13:24.995Z,6.06
2022-11-27T20:18:29.878Z,6.07
2022-11-27T20:23:35.360Z,6.12
2022-11-27T20:28:42.173Z,6.26
2022-11-27T20:33:45.818Z,6.24
2022-11-27T20:39:00.855Z,6.20
2022-11-27T20:44:13.835Z,6.16
2022-11-27T20:49:21.454Z,6.13
2022-11-27T20:54:43.412Z,6.11
2022-11-27T20:59:54.695Z,6.07
2022-11-27T21:04:59.981Z,6.06
2022-11-27T21:10:06.560Z,6.06
2022-11-27T21:15:16.671Z,6.08
2022-11-27T21:20:21.337Z,6.07
2022-11-27T21:25:25.789Z,6.05
2022-11-27T21:30:29.432Z,6.03
2022-11-27T21:35:40.538Z,6.02
2022-11-27T21:46:20.322Z,5.98
2022-11-27T21:57:08.917Z,5.88
2022-11-27T22:02:13.345Z,5.86
2022-11-27T22:07:19.223Z,5.83
2022-11-27T22:12:23.983Z,5.81
2022-11-27T22:22:47.907Z,5.81
2022-11-27T22:27:51.860Z,5.87
2022-11-27T22:32:59.753Z,5.97
2022-11-27T22:38:06.062Z,6.01
2022-11-27T22:43:22.107Z,6.01
2022-11-27T22:48:25.591Z,6.01
2022-11-27T22:53:29.240Z,5.99
2022-11-27T22:58:41.602Z,5.94
2022-11-27T23:03:46.046Z,5.94
2022-11-27T23:14:34.554Z,5.91
2022-11-27T23:20:12.609Z,5.88
2022-11-27T23:26:14.727Z,5.85
2022-11-27T23:31:40.174Z,5.81
2022-11-27T23:37:04.246Z,5.79
2022-11-27T23:42:08.249Z,5.80
2022-11-27T23:47:12.313Z,5.76
2022-11-27T23:52:22.144Z,5.75
2022-11-27T23:57:30.056Z,5.81
